Погода Такуаритингана неделю

Сан-Паулу, Бразилия

21 - 27 июля
  • 21июля
    Сегодня
    +15°
    +31°
    Ясно и безоблачно
    ВремяПогодаТемператураВлажностьДавлениеВетер, м/сВероятность осадков
    00:00Ясно и безоблачно+18°C53 %714 мм2.5 м/с5 %
    03:00Ясно и безоблачно+16°C57 %713 мм2.9 м/с5 %
    06:00Ясно и безоблачно+16°C62 %713 мм4.1 м/с5 %
    09:00Ясно и безоблачно+19°C55 %715 мм3.8 м/с5 %
    12:00Ясно и безоблачно+27°C31 %715 мм3.0 м/с5 %
    15:00Ясно и безоблачно+29°C26 %714 мм0.6 м/с5 %
    18:00Ясно и безоблачно+26°C40 %713 мм1.9 м/с5 %
    21:00Ясно и безоблачно+22°C48 %714 мм2.4 м/с5 %
  • 22июля
    Понедельник
    +16°
    +31°
    Ясно и безоблачно
    ВремяПогодаТемператураВлажностьДавлениеВетер, м/сВероятность осадков
    00:00Ясно и безоблачно+19°C58 %714 мм2.5 м/с5 %
    03:00Ясно и безоблачно+17°C62 %713 мм3.2 м/с5 %
    06:00Ясно и безоблачно+17°C67 %713 мм2.8 м/с5 %
    09:00Ясно и безоблачно+20°C52 %716 мм1.9 м/с5 %
    12:00Ясно и безоблачно+28°C29 %716 мм0.4 м/с5 %
    15:00Ясно и безоблачно+30°C26 %714 мм0.9 м/с5 %
    18:00Ясно и безоблачно+26°C41 %714 мм2.3 м/с5 %
    21:00Ясно и безоблачно+22°C46 %714 мм2.2 м/с5 %
  • 23июля
    Вторник
    +17°
    +31°
    Практически безоблачно
    ВремяПогодаТемператураВлажностьДавлениеВетер, м/сВероятность осадков
    00:00Ясно и безоблачно+20°C49 %715 мм3.0 м/с5 %
    03:00Ясно и безоблачно+18°C58 %714 мм3.4 м/с5 %
    06:00Ясно и безоблачно+18°C65 %714 мм3.6 м/с5 %
    09:00Ясно и безоблачно+21°C53 %716 мм3.6 м/с5 %
    12:00Ясно и безоблачно+28°C31 %716 мм2.8 м/с5 %
    15:00Практически безоблачно+30°C26 %714 мм1.2 м/с5 %
    18:00Ясно и безоблачно+27°C38 %714 мм2.2 м/с5 %
    21:00Ясно и безоблачно+24°C40 %714 мм3.4 м/с5 %
  • 24июля
    Среда
    +17°
    +31°
    Небольшая облачность
    ВремяПогодаТемператураВлажностьДавлениеВетер, м/сВероятность осадков
    00:00Ясно и безоблачно+20°C48 %714 мм3.7 м/с5 %
    03:00Облачно с прояснениями+17°C58 %713 мм3.2 м/с5 %
    06:00Ясно и безоблачно+17°C60 %714 мм3.8 м/с5 %
    09:00Небольшая облачность+21°C48 %716 мм4.1 м/с5 %
    12:00Небольшая облачность+28°C28 %716 мм3.2 м/с5 %
    15:00Небольшая облачность+30°C25 %715 мм1.7 м/с5 %
    18:00Небольшая облачность+28°C33 %714 мм1.0 м/с5 %
    21:00Облачно с прояснениями+22°C45 %714 мм2.0 м/с5 %
Мы используем cookies
Соглашаюсь